createdAt,value
2023-04-11T00:00:29.278Z,3.47
2023-04-11T00:02:42.767Z,3.50
2023-04-11T00:04:58.232Z,2.87
2023-04-11T00:07:17.299Z,3.00
2023-04-11T00:09:34.896Z,2.70
2023-04-11T00:11:56.369Z,3.07
2023-04-11T00:14:17.947Z,3.20
2023-04-11T00:16:53.528Z,2.90
2023-04-11T00:19:16.134Z,3.20
2023-04-11T00:21:35.712Z,3.13
2023-04-11T00:23:50.919Z,3.20
2023-04-11T00:26:06.132Z,3.13
2023-04-11T00:28:19.302Z,3.17
2023-04-11T00:30:46.791Z,2.90
2023-04-11T00:33:02.719Z,2.97
2023-04-11T00:35:18.243Z,3.10
2023-04-11T00:37:34.122Z,2.87
2023-04-11T00:39:53.362Z,3.10
2023-04-11T00:42:19.733Z,3.63
2023-04-11T00:44:31.556Z,3.23
2023-04-11T00:46:58.389Z,2.83
2023-04-11T00:49:09.990Z,2.83
2023-04-11T00:51:29.883Z,3.00
2023-04-11T00:53:40.709Z,2.77
2023-04-11T00:55:56.253Z,3.40
2023-04-11T00:58:10.450Z,2.90
2023-04-11T01:00:25.437Z,3.23
2023-04-11T01:02:36.146Z,3.23
2023-04-11T01:04:45.617Z,3.40
2023-04-11T01:06:57.715Z,3.23
2023-04-11T01:09:07.139Z,3.10
2023-04-11T01:11:20.281Z,2.70
2023-04-11T01:13:30.261Z,2.77
2023-04-11T01:15:39.264Z,3.40
2023-04-11T01:17:50.150Z,3.03
2023-04-11T01:19:59.749Z,3.20
2023-04-11T01:22:09.300Z,2.83
2023-04-11T01:24:20.469Z,3.10
2023-04-11T01:26:29.852Z,3.10
2023-04-11T01:28:38.572Z,3.23
2023-04-11T01:30:47.776Z,3.13
2023-04-11T01:32:56.619Z,2.90
2023-04-11T01:35:06.097Z,3.20
2023-04-11T01:37:15.371Z,3.60
2023-04-11T01:39:25.579Z,3.30
2023-04-11T01:41:35.969Z,3.60
2023-04-11T01:43:45.204Z,3.33
2023-04-11T01:45:54.418Z,3.07
2023-04-11T01:48:08.218Z,3.60
2023-04-11T01:50:17.619Z,3.77
2023-04-11T01:52:26.522Z,3.13
2023-04-11T01:54:37.073Z,3.70
2023-04-11T01:56:47.699Z,3.87
2023-04-11T01:58:59.348Z,3.23
2023-04-11T02:01:08.488Z,3.20
2023-04-11T02:03:18.899Z,3.37
2023-04-11T02:05:28.222Z,3.43
2023-04-11T02:07:37.969Z,3.40
2023-04-11T02:09:48.864Z,3.00
2023-04-11T02:11:58.107Z,3.00
2023-04-11T02:14:09.934Z,3.23
2023-04-11T02:16:19.443Z,3.10
2023-04-11T02:18:28.584Z,3.43
2023-04-11T02:20:38.266Z,3.67
2023-04-11T02:22:47.169Z,3.23
2023-04-11T02:24:57.433Z,3.60
2023-04-11T02:27:06.864Z,3.50
2023-04-11T02:29:16.443Z,3.40
2023-04-11T02:31:25.426Z,3.47
2023-04-11T02:33:34.371Z,3.50
2023-04-11T02:35:43.511Z,3.27
2023-04-11T02:37:52.315Z,3.07
2023-04-11T02:40:05.763Z,3.87
2023-04-11T02:42:15.455Z,3.70
2023-04-11T02:44:26.805Z,3.50
2023-04-11T02:46:35.836Z,3.70
2023-04-11T02:48:44.609Z,3.63
2023-04-11T02:50:53.422Z,3.40
2023-04-11T02:53:02.715Z,3.27
2023-04-11T02:55:13.801Z,3.10
2023-04-11T02:57:23.007Z,3.37
2023-04-11T02:59:31.976Z,3.50
2023-04-11T03:01:40.697Z,3.50
2023-04-11T03:03:50.064Z,3.30
2023-04-11T03:05:58.812Z,3.20
2023-04-11T03:08:09.373Z,3.27
2023-04-11T03:10:19.788Z,3.63
2023-04-11T03:12:28.963Z,3.10
2023-04-11T03:14:37.981Z,2.90
2023-04-11T03:16:47.122Z,3.30
2023-04-11T03:18:56.561Z,3.23
2023-04-11T03:21:07.686Z,3.30
2023-04-11T03:23:16.549Z,3.37
2023-04-11T03:25:28.520Z,3.27
2023-04-11T03:27:37.503Z,3.43
2023-04-11T03:29:46.264Z,3.50
2023-04-11T03:31:55.442Z,4.13
2023-04-11T03:34:04.365Z,2.97
2023-04-11T03:36:13.419Z,3.10
2023-04-11T03:38:22.272Z,3.50
2023-04-11T03:40:32.473Z,3.37
2023-04-11T03:42:41.302Z,3.40
2023-04-11T03:44:50.374Z,3.23
2023-04-11T03:46:59.252Z,3.00
2023-04-11T03:49:08.140Z,3.03
2023-04-11T03:51:17.168Z,3.70
2023-04-11T03:53:26.026Z,3.27
2023-04-11T03:55:36.639Z,3.43
2023-04-11T03:57:45.359Z,3.23
2023-04-11T03:59:53.998Z,3.30
2023-04-11T04:02:03.102Z,3.50
2023-04-11T04:04:12.316Z,3.53
2023-04-11T04:06:22.060Z,4.00
2023-04-11T04:08:31.184Z,3.60
2023-04-11T04:10:41.920Z,3.97
2023-04-11T04:12:50.804Z,3.60
2023-04-11T04:14:59.878Z,3.47
2023-04-11T04:17:08.760Z,4.10
2023-04-11T04:19:17.355Z,3.53
2023-04-11T04:21:26.893Z,3.50
2023-04-11T04:23:36.233Z,3.80
2023-04-11T04:25:49.941Z,3.30
2023-04-11T04:28:01.065Z,3.30
2023-04-11T04:30:10.466Z,3.50
2023-04-11T04:32:21.282Z,3.57
2023-04-11T04:34:30.445Z,3.60
2023-04-11T04:36:46.521Z,3.20
2023-04-11T04:38:57.604Z,3.53
2023-04-11T04:41:15.749Z,3.97
2023-04-11T04:43:27.441Z,3.93
2023-04-11T04:45:36.464Z,3.37
2023-04-11T04:47:45.249Z,3.73
2023-04-11T04:49:57.196Z,3.90
2023-04-11T04:52:06.364Z,6.23
2023-04-11T04:54:16.066Z,5.97
2023-04-11T04:56:28.930Z,5.90
2023-04-11T04:58:37.606Z,6.33
2023-04-11T05:00:46.522Z,6.40
2023-04-11T05:02:56.398Z,4.17
2023-04-11T05:05:05.821Z,3.93
2023-04-11T05:07:15.113Z,4.40
2023-04-11T05:09:24.453Z,4.30
2023-04-11T05:11:35.569Z,3.97
2023-04-11T05:13:44.300Z,4.40
2023-04-11T05:15:54.262Z,3.83
2023-04-11T05:18:03.723Z,4.90
2023-04-11T05:20:13.727Z,4.63
2023-04-11T05:22:22.543Z,4.30
2023-04-11T05:24:31.370Z,4.27
2023-04-11T05:26:41.704Z,4.33
2023-04-11T05:28:51.099Z,4.40
2023-04-11T05:31:00.273Z,4.50
2023-04-11T05:33:09.056Z,4.37
2023-04-11T05:35:18.315Z,5.27
2023-04-11T05:37:27.378Z,4.93
2023-04-11T05:39:36.094Z,4.33
2023-04-11T05:41:46.525Z,5.00
2023-04-11T05:43:55.576Z,4.40
2023-04-11T05:46:04.447Z,4.60
2023-04-11T05:48:14.830Z,4.57
2023-04-11T05:50:24.719Z,5.07
2023-04-11T05:52:33.872Z,4.30
2023-04-11T05:54:42.621Z,4.80
2023-04-11T05:56:52.676Z,4.97
2023-04-11T05:59:02.173Z,5.80
2023-04-11T06:01:14.807Z,5.77
2023-04-11T06:03:24.323Z,5.70
2023-04-11T06:05:33.878Z,5.63
2023-04-11T06:07:43.336Z,4.40
2023-04-11T06:09:52.509Z,3.77
2023-04-11T06:12:03.112Z,3.20
2023-04-11T06:14:12.241Z,4.03
2023-04-11T06:16:20.909Z,3.30
2023-04-11T06:18:30.266Z,2.77
2023-04-11T06:20:39.456Z,2.70
2023-04-11T06:22:51.517Z,3.00
2023-04-11T06:25:00.637Z,3.00
2023-04-11T06:27:11.287Z,3.10
2023-04-11T06:29:19.860Z,3.00
2023-04-11T06:31:28.514Z,3.00
2023-04-11T06:33:37.789Z,2.73
2023-04-11T06:35:46.567Z,2.87
2023-04-11T06:37:55.338Z,2.40
2023-04-11T06:40:05.576Z,2.37
2023-04-11T06:42:16.829Z,2.77
2023-04-11T06:44:26.058Z,2.80
2023-04-11T06:46:34.780Z,2.93
2023-04-11T06:48:43.979Z,2.43
2023-04-11T06:50:53.004Z,3.10
2023-04-11T06:53:01.735Z,2.67
2023-04-11T06:55:14.742Z,2.87
2023-04-11T06:57:25.162Z,2.27
2023-04-11T06:59:34.969Z,2.80
2023-04-11T07:01:43.951Z,2.60
2023-04-11T07:03:53.330Z,2.60
2023-04-11T07:06:02.732Z,2.20
2023-04-11T07:08:11.610Z,2.30
2023-04-11T07:10:20.791Z,2.63
2023-04-11T07:12:31.057Z,2.80
2023-04-11T07:14:40.392Z,2.40
2023-04-11T07:16:49.712Z,2.23
2023-04-11T07:18:59.249Z,2.53
2023-04-11T07:21:08.385Z,2.83
2023-04-11T07:23:17.493Z,2.30
2023-04-11T07:25:30.837Z,2.60
2023-04-11T07:27:43.975Z,2.70
2023-04-11T07:29:52.586Z,2.40
2023-04-11T07:32:01.326Z,2.40
2023-04-11T07:34:10.149Z,2.90
2023-04-11T07:36:18.785Z,2.10
2023-04-11T07:38:29.582Z,2.10
2023-04-11T07:40:38.632Z,1.87
2023-04-11T07:42:49.117Z,2.33
2023-04-11T07:44:58.282Z,2.17
2023-04-11T07:47:06.957Z,2.30
2023-04-11T07:49:15.558Z,2.17
2023-04-11T07:51:24.223Z,2.40
2023-04-11T07:53:34.791Z,2.10
2023-04-11T07:55:43.741Z,2.70
2023-04-11T07:57:54.439Z,2.10
2023-04-11T08:00:04.528Z,2.10
2023-04-11T08:02:13.256Z,2.00
2023-04-11T08:04:22.146Z,2.43
2023-04-11T08:06:32.055Z,1.93
2023-04-11T08:08:41.504Z,2.23
2023-04-11T08:10:52.122Z,2.40
2023-04-11T08:13:02.941Z,2.17
2023-04-11T08:15:12.486Z,1.97
2023-04-11T08:17:27.834Z,1.83
2023-04-11T08:19:38.088Z,2.00
2023-04-11T08:21:46.922Z,2.20
2023-04-11T08:23:55.907Z,2.53
2023-04-11T08:26:04.841Z,2.30
2023-04-11T08:28:15.496Z,2.20
2023-04-11T08:30:24.938Z,1.90
2023-04-11T08:32:33.833Z,2.03
2023-04-11T08:34:42.540Z,1.87
2023-04-11T08:36:51.582Z,2.20
2023-04-11T08:39:01.156Z,2.10
2023-04-11T08:41:10.577Z,2.10
2023-04-11T08:43:21.872Z,2.10
2023-04-11T08:45:31.455Z,2.57
2023-04-11T08:47:40.718Z,1.93
2023-04-11T08:49:52.064Z,2.33
2023-04-11T08:52:02.222Z,2.17
2023-04-11T08:54:11.531Z,2.10
2023-04-11T08:56:20.653Z,2.00
2023-04-11T08:58:32.739Z,2.30
2023-04-11T09:00:42.025Z,1.90
2023-04-11T09:03:00.984Z,2.20
2023-04-11T09:05:10.105Z,2.10
2023-04-11T09:07:19.294Z,2.60
2023-04-11T09:09:31.557Z,2.00
2023-04-11T09:11:55.734Z,2.40
2023-04-11T09:14:09.957Z,2.33
2023-04-11T09:16:18.565Z,1.77
2023-04-11T09:18:34.105Z,2.00
2023-04-11T09:20:43.451Z,1.90
2023-04-11T09:22:53.357Z,2.30
2023-04-11T09:25:05.594Z,2.10
2023-04-11T09:27:15.985Z,2.40
2023-04-11T09:29:39.526Z,2.20
2023-04-11T09:31:48.565Z,2.03
2023-04-11T09:33:58.362Z,2.10
2023-04-11T09:36:20.424Z,2.17
2023-04-11T09:38:29.826Z,2.27
2023-04-11T09:40:43.936Z,2.10
2023-04-11T09:42:58.722Z,2.13
2023-04-11T09:45:18.116Z,2.10
2023-04-11T09:47:27.034Z,1.83
2023-04-11T09:49:37.031Z,2.30
2023-04-11T09:51:45.607Z,2.10
2023-04-11T09:53:54.793Z,1.83
2023-04-11T09:56:04.123Z,2.17
2023-04-11T09:58:13.342Z,2.20
2023-04-11T10:00:25.176Z,2.80
2023-04-11T10:02:34.158Z,2.90
2023-04-11T10:04:43.346Z,2.37
2023-04-11T10:07:02.315Z,2.50
2023-04-11T10:09:11.847Z,2.43
2023-04-11T10:11:23.567Z,2.37
2023-04-11T10:13:40.097Z,2.10
2023-04-11T10:16:03.985Z,2.33
2023-04-11T10:18:15.150Z,1.93
2023-04-11T10:20:43.802Z,1.90
2023-04-11T10:23:02.891Z,2.20
2023-04-11T10:25:18.497Z,2.40
2023-04-11T10:27:42.193Z,2.20
2023-04-11T10:29:53.115Z,3.60
2023-04-11T10:32:10.893Z,3.50
2023-04-11T10:34:21.407Z,2.90
2023-04-11T10:36:31.238Z,2.87
2023-04-11T10:38:49.979Z,2.77
2023-04-11T10:41:17.135Z,2.27
2023-04-11T10:43:25.945Z,2.30
2023-04-11T10:45:40.062Z,2.53
2023-04-11T10:48:03.588Z,3.00
2023-04-11T10:50:27.697Z,3.07
2023-04-11T10:52:41.867Z,2.87
2023-04-11T10:54:51.059Z,2.43
2023-04-11T10:56:59.728Z,2.63
2023-04-11T10:59:10.151Z,2.70
2023-04-11T11:01:31.709Z,2.60
2023-04-11T11:03:58.284Z,2.17
2023-04-11T11:06:08.216Z,1.97
2023-04-11T11:08:30.952Z,2.60
2023-04-11T11:10:44.307Z,2.33
2023-04-11T11:12:56.286Z,2.03
2023-04-11T11:15:15.326Z,2.27
2023-04-11T11:17:24.384Z,2.27
2023-04-11T11:19:33.932Z,2.40
2023-04-11T11:21:43.094Z,2.57
2023-04-11T11:24:00.830Z,2.07
2023-04-11T11:26:09.401Z,2.20
2023-04-11T11:28:17.978Z,2.20
2023-04-11T11:30:27.455Z,2.50
2023-04-11T11:32:36.646Z,2.53
2023-04-11T11:34:46.188Z,2.17
2023-04-11T11:36:56.807Z,2.00
2023-04-11T11:39:08.121Z,2.37
2023-04-11T11:41:18.137Z,2.43
2023-04-11T11:43:28.459Z,2.20
2023-04-11T11:45:37.711Z,2.40
2023-04-11T11:47:47.512Z,2.87
2023-04-11T11:49:57.255Z,2.40
2023-04-11T11:52:05.976Z,2.47
2023-04-11T11:54:17.366Z,2.27
2023-04-11T11:56:26.428Z,2.33
2023-04-11T11:58:44.383Z,3.30
2023-04-11T12:00:53.638Z,2.97
2023-04-11T12:03:05.045Z,2.50
2023-04-11T12:05:14.279Z,2.20
2023-04-11T12:07:24.028Z,2.47
2023-04-11T12:09:34.590Z,2.27
2023-04-11T12:11:45.152Z,2.40
2023-04-11T12:13:54.916Z,2.50
2023-04-11T12:16:04.073Z,2.37
2023-04-11T12:18:13.406Z,2.27
2023-04-11T12:20:24.415Z,2.77
2023-04-11T12:22:33.620Z,2.70
2023-04-11T12:24:44.069Z,2.60
2023-04-11T12:27:06.321Z,2.53
2023-04-11T12:29:15.840Z,3.03
2023-04-11T12:31:25.534Z,2.77
2023-04-11T12:33:34.898Z,2.70
2023-04-11T12:35:43.799Z,2.83
2023-04-11T12:37:53.061Z,2.60
2023-04-11T12:40:06.882Z,2.40
2023-04-11T12:42:18.652Z,2.40
2023-04-11T12:44:29.607Z,3.10
2023-04-11T12:46:38.739Z,3.20
2023-04-11T12:48:47.517Z,2.63
2023-04-11T12:50:56.524Z,2.80
2023-04-11T12:53:05.450Z,2.77
2023-04-11T12:55:15.781Z,3.20
2023-04-11T12:57:25.523Z,3.10
2023-04-11T12:59:34.424Z,2.67
2023-04-11T13:01:43.956Z,3.27
2023-04-11T13:03:53.051Z,3.40
2023-04-11T13:06:02.089Z,2.97
2023-04-11T13:08:11.130Z,3.87
2023-04-11T13:10:22.047Z,2.73
2023-04-11T13:12:31.185Z,3.00
2023-04-11T13:14:40.467Z,2.63
2023-04-11T13:16:49.801Z,2.33
2023-04-11T13:18:58.967Z,2.27
2023-04-11T13:21:07.780Z,2.60
2023-04-11T13:23:17.371Z,2.70
2023-04-11T13:25:28.163Z,2.50
2023-04-11T13:27:37.431Z,2.50
2023-04-11T13:29:46.302Z,3.07
2023-04-11T13:31:55.380Z,2.53
2023-04-11T13:34:04.684Z,2.67
2023-04-11T13:36:14.287Z,2.80
2023-04-11T13:38:23.678Z,2.57
2023-04-11T13:40:34.328Z,2.87
2023-04-11T13:42:43.188Z,2.87
2023-04-11T13:44:52.088Z,3.20
2023-04-11T13:47:03.083Z,2.60
2023-04-11T13:49:12.549Z,3.00
2023-04-11T13:51:21.567Z,3.03
2023-04-11T13:53:30.394Z,2.90
2023-04-11T13:55:41.275Z,3.07
2023-04-11T13:57:50.463Z,2.93
2023-04-11T13:59:59.313Z,2.90
2023-04-11T14:02:08.453Z,3.00
2023-04-11T14:04:17.767Z,3.30
2023-04-11T14:06:27.105Z,3.37
2023-04-11T14:08:36.919Z,3.37
2023-04-11T14:10:47.290Z,3.40
2023-04-11T14:12:56.190Z,3.57
2023-04-11T14:15:04.890Z,3.60
2023-04-11T14:17:13.756Z,3.03
2023-04-11T14:19:24.992Z,3.33
2023-04-11T14:21:33.984Z,3.27
2023-04-11T14:23:42.532Z,3.70
2023-04-11T14:25:53.818Z,3.17
2023-04-11T14:28:02.772Z,3.33
2023-04-11T14:30:12.667Z,2.90
2023-04-11T14:32:21.356Z,3.40
2023-04-11T14:34:30.786Z,3.40
2023-04-11T14:36:39.967Z,3.17
2023-04-11T14:38:48.849Z,3.50
2023-04-11T14:40:59.354Z,3.50
2023-04-11T14:43:08.739Z,3.70
2023-04-11T14:45:17.396Z,3.53
2023-04-11T14:47:26.247Z,3.73
2023-04-11T14:49:35.337Z,3.63
2023-04-11T14:51:44.404Z,3.27
2023-04-11T14:53:55.559Z,3.40
2023-04-11T14:56:08.725Z,4.03
2023-04-11T14:58:17.807Z,3.90
2023-04-11T15:00:26.998Z,4.03
2023-04-11T15:02:36.205Z,4.07
2023-04-11T15:04:45.782Z,4.40
2023-04-11T15:06:54.653Z,3.93
2023-04-11T15:09:04.925Z,4.03
2023-04-11T15:11:15.288Z,4.37
2023-04-11T15:13:23.955Z,4.67
2023-04-11T15:15:32.620Z,4.73
2023-04-11T15:17:42.634Z,4.43
2023-04-11T15:19:51.402Z,4.60
2023-04-11T15:22:00.418Z,4.77
2023-04-11T15:24:09.478Z,5.10
2023-04-11T15:26:20.122Z,5.03
2023-04-11T15:28:30.005Z,4.90
2023-04-11T15:30:48.041Z,4.87
2023-04-11T15:32:56.708Z,4.40
2023-04-11T15:35:05.348Z,4.60
2023-04-11T15:37:14.857Z,4.60
2023-04-11T15:39:23.980Z,4.70
2023-04-11T15:41:34.619Z,4.67
2023-04-11T15:43:43.449Z,4.50
2023-04-11T15:45:52.972Z,4.87
2023-04-11T15:48:02.006Z,4.73
2023-04-11T15:50:11.488Z,4.63
2023-04-11T15:52:21.568Z,4.70
2023-04-11T15:54:30.142Z,4.93
2023-04-11T15:56:40.785Z,5.13
2023-04-11T15:58:50.424Z,5.40
2023-04-11T16:01:01.483Z,5.63
2023-04-11T16:03:10.775Z,5.60
2023-04-11T16:05:21.157Z,5.50
2023-04-11T16:07:29.813Z,5.57
2023-04-11T16:09:39.243Z,6.00
2023-04-11T16:11:50.068Z,5.83
2023-04-11T16:13:58.847Z,5.73
2023-04-11T16:16:08.600Z,5.93
2023-04-11T16:18:17.765Z,6.03
2023-04-11T16:20:26.579Z,6.00
2023-04-11T16:22:35.744Z,6.33
2023-04-11T16:24:45.109Z,6.70
2023-04-11T16:26:55.512Z,6.63
2023-04-11T16:29:04.198Z,6.57
2023-04-11T16:31:15.354Z,6.37
2023-04-11T16:33:24.084Z,6.70
2023-04-11T16:35:33.272Z,6.50
2023-04-11T16:37:42.378Z,7.10
2023-04-11T16:39:51.732Z,7.10
2023-04-11T16:42:02.577Z,7.33
2023-04-11T16:44:12.446Z,7.30
2023-04-11T16:46:21.644Z,6.80
2023-04-11T16:48:30.774Z,6.30
2023-04-11T16:50:40.027Z,6.87
2023-04-11T16:52:49.218Z,6.67
2023-04-11T16:54:57.908Z,6.90
2023-04-11T16:57:08.253Z,6.73
2023-04-11T16:59:17.438Z,7.37
2023-04-11T17:01:26.620Z,7.17
2023-04-11T17:03:35.578Z,7.13
2023-04-11T17:05:46.311Z,6.50
2023-04-11T17:07:55.191Z,7.13
2023-04-11T17:10:05.268Z,7.37
2023-04-11T17:12:16.050Z,7.10
2023-04-11T17:14:25.208Z,7.47
2023-04-11T17:16:33.830Z,6.03
2023-04-11T17:18:42.822Z,6.40
2023-04-11T17:20:52.198Z,7.33
2023-04-11T17:23:01.228Z,6.40
2023-04-11T17:25:10.691Z,6.63
2023-04-11T17:27:21.149Z,6.70
2023-04-11T17:29:30.309Z,6.63
2023-04-11T17:31:39.437Z,6.30
2023-04-11T17:33:48.516Z,6.53
2023-04-11T17:35:57.728Z,5.73
2023-04-11T17:38:06.317Z,6.33
2023-04-11T17:40:15.556Z,5.80
2023-04-11T17:42:25.829Z,6.20
2023-04-11T17:44:34.517Z,6.40
2023-04-11T17:46:43.505Z,6.43
2023-04-11T17:48:52.605Z,6.37
2023-04-11T17:51:02.098Z,5.60
2023-04-11T17:53:11.423Z,6.40
2023-04-11T17:55:21.210Z,6.23
2023-04-11T17:57:31.626Z,5.87
2023-04-11T17:59:40.892Z,5.50
2023-04-11T18:01:49.656Z,5.57
2023-04-11T18:03:59.169Z,5.23
2023-04-11T18:06:09.040Z,5.40
2023-04-11T18:08:18.063Z,5.73
2023-04-11T18:10:28.451Z,5.77
2023-04-11T18:12:38.582Z,5.87
2023-04-11T18:14:47.473Z,5.70
2023-04-11T18:16:57.026Z,5.33
2023-04-11T18:19:06.116Z,5.40
2023-04-11T18:21:15.123Z,5.63
2023-04-11T18:23:24.100Z,5.00
2023-04-11T18:25:33.224Z,5.47
2023-04-11T18:27:43.613Z,5.30
2023-04-11T18:29:52.835Z,5.73
2023-04-11T18:32:02.204Z,4.90
2023-04-11T18:34:11.234Z,5.93
2023-04-11T18:36:21.413Z,5.23
2023-04-11T18:38:30.924Z,5.20
2023-04-11T18:40:40.066Z,5.33
2023-04-11T18:42:53.092Z,5.50
2023-04-11T18:45:03.183Z,5.17
2023-04-11T18:47:17.033Z,5.40
2023-04-11T18:49:26.560Z,5.60
2023-04-11T18:51:35.781Z,5.20
2023-04-11T18:53:45.597Z,5.57
2023-04-11T18:55:54.893Z,5.73
2023-04-11T18:58:08.994Z,5.27
2023-04-11T19:00:19.457Z,5.63
2023-04-11T19:02:28.593Z,5.63
2023-04-11T19:04:38.002Z,5.80
2023-04-11T19:06:47.266Z,5.57
2023-04-11T19:08:55.982Z,6.00
2023-04-11T19:11:05.291Z,5.67
2023-04-11T19:13:15.904Z,5.70
2023-04-11T19:15:24.897Z,5.53
2023-04-11T19:17:33.611Z,5.47
2023-04-11T19:19:43.524Z,5.53
2023-04-11T19:21:52.314Z,5.87
2023-04-11T19:24:02.316Z,5.50
2023-04-11T19:26:11.460Z,5.63
2023-04-11T19:28:21.912Z,5.33
2023-04-11T19:30:30.586Z,5.13
2023-04-11T19:32:43.526Z,5.40
2023-04-11T19:34:53.112Z,5.07
2023-04-11T19:37:02.544Z,5.40
2023-04-11T19:39:11.058Z,4.57
2023-04-11T19:41:20.873Z,4.57
2023-04-11T19:43:31.337Z,4.73
2023-04-11T19:45:40.405Z,4.57
2023-04-11T19:47:49.302Z,4.20
2023-04-11T19:49:59.540Z,4.73
2023-04-11T19:52:08.142Z,4.57
2023-04-11T19:54:17.943Z,4.30
2023-04-11T19:56:26.879Z,5.07
2023-04-11T19:58:37.954Z,4.07
2023-04-11T20:00:47.146Z,4.40
2023-04-11T20:02:56.447Z,3.57
2023-04-11T20:05:05.968Z,3.67
2023-04-11T20:07:14.575Z,4.07
2023-04-11T20:09:23.265Z,3.90
2023-04-11T20:11:33.483Z,3.70
2023-04-11T20:13:44.131Z,3.80
2023-04-11T20:15:52.845Z,3.40
2023-04-11T20:18:01.994Z,3.60
2023-04-11T20:20:11.946Z,3.50
2023-04-11T20:22:22.156Z,3.80
2023-04-11T20:24:31.482Z,3.40
2023-04-11T20:26:40.470Z,3.83
2023-04-11T20:28:51.219Z,3.50
2023-04-11T20:31:00.542Z,3.80
2023-04-11T20:33:09.496Z,4.40
2023-04-11T20:35:19.702Z,3.70
2023-04-11T20:37:31.006Z,3.57
2023-04-11T20:39:39.645Z,3.70
2023-04-11T20:41:49.915Z,3.80
2023-04-11T20:44:00.602Z,3.47
2023-04-11T20:46:10.124Z,3.70
2023-04-11T20:48:20.360Z,3.53
2023-04-11T20:50:31.083Z,3.50
2023-04-11T20:52:41.626Z,3.47
2023-04-11T20:54:50.541Z,3.40
2023-04-11T20:56:59.683Z,3.70
2023-04-11T20:59:10.259Z,3.37
2023-04-11T21:01:20.012Z,3.60
2023-04-11T21:03:31.608Z,3.70
2023-04-11T21:05:44.193Z,3.57
2023-04-11T21:07:54.763Z,3.30
2023-04-11T21:10:04.886Z,3.40
2023-04-11T21:12:13.741Z,3.70
2023-04-11T21:14:24.463Z,3.57
2023-04-11T21:16:33.851Z,3.33
2023-04-11T21:18:43.016Z,3.90
2023-04-11T21:20:52.091Z,3.53
2023-04-11T21:23:02.800Z,3.90
2023-04-11T21:25:11.556Z,4.20
2023-04-11T21:27:20.531Z,3.67
2023-04-11T21:29:30.803Z,3.80
2023-04-11T21:31:39.752Z,4.00
2023-04-11T21:33:48.845Z,4.03
2023-04-11T21:35:58.029Z,3.73
2023-04-11T21:38:07.104Z,3.90
2023-04-11T21:40:16.313Z,4.13
2023-04-11T21:42:25.272Z,3.70
2023-04-11T21:44:37.735Z,3.97
2023-04-11T21:46:46.337Z,3.43
2023-04-11T21:48:55.441Z,4.07
2023-04-11T21:51:04.476Z,3.90
2023-04-11T21:53:14.456Z,3.80
2023-04-11T21:55:23.616Z,3.97
2023-04-11T21:57:34.972Z,3.83
2023-04-11T21:59:45.860Z,3.90
2023-04-11T22:01:54.806Z,4.00
2023-04-11T22:04:04.034Z,3.73
2023-04-11T22:06:13.127Z,3.73
2023-04-11T22:08:24.124Z,3.70
2023-04-11T22:10:46.871Z,4.00
2023-04-11T22:12:58.284Z,3.73
2023-04-11T22:15:11.179Z,4.20
2023-04-11T22:17:20.320Z,3.93
2023-04-11T22:19:29.284Z,3.87
2023-04-11T22:21:38.402Z,3.73
2023-04-11T22:23:47.643Z,4.30
2023-04-11T22:25:59.458Z,4.30
2023-04-11T22:28:08.249Z,4.07
2023-04-11T22:30:18.651Z,4.00
2023-04-11T22:32:28.542Z,3.73
2023-04-11T22:34:37.610Z,4.33
2023-04-11T22:36:46.700Z,4.13
2023-04-11T22:38:55.415Z,4.17
2023-04-11T22:41:04.430Z,4.53
2023-04-11T22:43:13.648Z,4.60
2023-04-11T22:45:25.077Z,4.30
2023-04-11T22:47:34.607Z,4.63
2023-04-11T22:49:45.014Z,4.40
2023-04-11T22:51:59.417Z,4.30
2023-04-11T22:54:08.636Z,4.33
2023-04-11T22:56:17.930Z,4.40
2023-04-11T22:58:26.772Z,4.87
2023-04-11T23:00:38.607Z,4.77
2023-04-11T23:02:47.753Z,4.53
2023-04-11T23:04:56.768Z,4.20
2023-04-11T23:07:06.383Z,4.50
2023-04-11T23:09:15.361Z,4.50
2023-04-11T23:11:24.094Z,4.53
2023-04-11T23:13:33.199Z,4.43
2023-04-11T23:15:46.694Z,4.70
2023-04-11T23:17:55.737Z,4.83
2023-04-11T23:20:09.093Z,4.67
2023-04-11T23:22:18.377Z,4.60
2023-04-11T23:24:29.190Z,5.13
2023-04-11T23:26:38.225Z,4.67
2023-04-11T23:28:47.953Z,5.30
2023-04-11T23:30:58.118Z,5.67
2023-04-11T23:33:08.966Z,5.63
2023-04-11T23:35:19.564Z,5.43
2023-04-11T23:37:28.532Z,5.67
2023-04-11T23:39:38.158Z,5.13
2023-04-11T23:41:50.286Z,5.33
2023-04-11T23:43:59.232Z,5.40
2023-04-11T23:46:09.641Z,5.23
2023-04-11T23:48:18.504Z,4.97
2023-04-11T23:50:27.099Z,5.30
2023-04-11T23:52:36.116Z,5.40
2023-04-11T23:54:44.921Z,7.20
2023-04-11T23:56:53.429Z,7.10
2023-04-11T23:59:02.386Z,7.90
